Time;durP1;ratioP1;P1;durP2;ratioP2;P2;SDS_P1;SDS_P2;PMS_P1;PMS_P2;Temp;Humidity;BMP_temperature;BMP_pressure;BME280_temperature;BME280_humidity;BME280_pressure;Samples;Min_cycle;Max_cycle;Signal;HPM_P1;HPM_P2
2022/11/26 00:00:39;;;;;;;120.13;36.10;;;2.90;99.90;;;;;;4807557;29;20207;-83
2022/11/26 00:03:13;;;;;;;128.20;36.53;;;3.10;99.90;;;;;;4823962;29;20202;-85
2022/11/26 00:05:43;;;;;;;122.87;36.47;;;3.10;99.90;;;;;;4796563;29;20211;-83
2022/11/26 00:08:29;;;;;;;125.43;37.00;;;3.10;99.90;;;;;;4807165;29;20218;-85
2022/11/26 00:10:58;;;;;;;126.63;36.70;;;3.10;99.90;;;;;;4807502;29;20207;-89
2022/11/26 00:13:29;;;;;;;118.00;36.90;;;3.20;99.90;;;;;;4823711;29;20261;-92
2022/11/26 00:15:56;;;;;;;127.80;36.37;;;3.10;99.90;;;;;;4796572;29;20208;-86
2022/11/26 00:18:25;;;;;;;125.30;37.13;;;3.20;99.90;;;;;;4797731;29;20235;-90
2022/11/26 00:21:34;;;;;;;121.23;36.20;;;3.10;99.90;;;;;;4797567;29;20214;-91
2022/11/26 00:24:35;;;;;;;121.93;36.43;;;3.00;99.90;;;;;;4799625;29;20387;-84
2022/11/26 00:27:02;;;;;;;128.07;36.63;;;3.00;99.90;;;;;;4810515;29;20646;-87
2022/11/26 00:29:30;;;;;;;125.77;36.37;;;3.20;99.90;;;;;;4808123;29;20270;-84
2022/11/26 00:31:59;;;;;;;129.80;37.47;;;3.20;99.90;;;;;;4812397;29;20203;-85
2022/11/26 00:34:31;;;;;;;121.43;34.33;;;3.20;99.90;;;;;;4796463;29;20293;-94
2022/11/26 00:37:03;;;;;;;130.33;36.13;;;3.20;99.90;;;;;;4796422;29;20718;-93
2022/11/26 00:39:30;;;;;;;125.73;36.20;;;3.40;99.90;;;;;;4796175;29;20203;-87
2022/11/26 00:42:04;;;;;;;109.50;34.00;;;3.20;99.90;;;;;;4812017;29;20222;-94
2022/11/26 00:44:32;;;;;;;121.90;35.60;;;3.20;99.90;;;;;;4810617;29;20593;-93
2022/11/26 00:47:10;;;;;;;125.47;37.77;;;3.20;99.90;;;;;;4811495;29;20302;-91
2022/11/26 00:49:37;;;;;;;121.20;35.83;;;3.30;99.90;;;;;;4811019;29;20198;-88
2022/11/26 00:52:35;;;;;;;135.60;38.23;;;3.10;99.90;;;;;;4795620;29;20744;-93
2022/11/26 00:55:17;;;;;;;123.07;35.57;;;3.10;99.90;;;;;;4798032;29;20693;-89
2022/11/26 00:57:44;;;;;;;124.67;36.47;;;3.00;99.90;;;;;;4796906;29;20219;-83
2022/11/26 01:00:17;;;;;;;129.30;37.13;;;3.10;99.90;;;;;;4812428;29;20203;-88
2022/11/26 01:02:44;;;;;;;131.73;37.37;;;3.10;99.90;;;;;;4810911;29;20231;-90
2022/11/26 01:05:14;;;;;;;120.67;37.43;;;3.10;99.90;;;;;;4824597;29;20223;-85
2022/11/26 01:07:47;;;;;;;119.87;36.43;;;3.10;99.90;;;;;;4811264;29;20186;-82
2022/11/26 01:10:22;;;;;;;111.40;35.73;;;3.20;99.90;;;;;;4809905;29;20238;-87
2022/11/26 01:12:50;;;;;;;112.00;35.03;;;3.20;99.90;;;;;;4796444;29;20230;-92
2022/11/26 01:15:19;;;;;;;117.90;36.63;;;3.20;99.90;;;;;;4794974;29;20262;-80
2022/11/26 01:17:50;;;;;;;110.47;35.27;;;3.30;99.90;;;;;;4809820;29;20262;-81
2022/11/26 01:20:29;;;;;;;113.87;35.10;;;3.30;99.90;;;;;;4795250;29;20209;-86
2022/11/26 01:22:58;;;;;;;116.03;34.60;;;3.30;99.90;;;;;;4794623;29;20210;-85
2022/11/26 01:25:26;;;;;;;104.40;34.67;;;3.30;99.90;;;;;;4810392;29;20259;-93
2022/11/26 01:27:55;;;;;;;104.37;34.13;;;3.20;99.90;;;;;;4797185;29;20208;-88
2022/11/26 01:30:41;;;;;;;107.80;34.73;;;3.20;99.90;;;;;;4797729;29;20322;-89
2022/11/26 01:33:11;;;;;;;108.90;34.57;;;3.20;99.90;;;;;;4794704;29;20204;-82
2022/11/26 01:35:38;;;;;;;102.17;33.60;;;3.10;99.90;;;;;;4794913;29;20193;-83
2022/11/26 01:38:05;;;;;;;104.93;33.60;;;3.20;99.90;;;;;;4794936;29;20210;-82
2022/11/26 01:40:58;;;;;;;107.47;34.83;;;3.20;99.90;;;;;;4812579;29;20218;-88
2022/11/26 01:43:27;;;;;;;123.07;36.67;;;3.20;99.90;;;;;;4812618;29;20293;-90
2022/11/26 01:45:56;;;;;;;118.90;36.00;;;3.30;99.90;;;;;;4809672;29;20207;-88
2022/11/26 01:48:25;;;;;;;126.83;37.87;;;3.20;99.90;;;;;;4825761;29;20718;-88
2022/11/26 01:50:59;;;;;;;133.00;37.57;;;3.20;99.90;;;;;;4809577;29;20203;-92
2022/11/26 01:53:39;;;;;;;119.27;37.57;;;3.20;99.90;;;;;;4826022;29;20179;-92
2022/11/26 01:56:15;;;;;;;130.27;37.43;;;3.20;99.90;;;;;;4794169;29;20210;-86
2022/11/26 01:58:48;;;;;;;125.97;37.57;;;3.20;99.90;;;;;;4809063;29;20289;-87
2022/11/26 02:01:16;;;;;;;130.60;38.60;;;3.20;99.90;;;;;;4794551;29;20210;-89
2022/11/26 02:03:57;;;;;;;129.33;39.20;;;3.20;99.90;;;;;;4809465;29;20242;-86
2022/11/26 02:06:31;;;;;;;132.53;38.30;;;3.20;99.90;;;;;;4799176;29;20691;-92
2022/11/26 02:09:01;;;;;;;132.07;37.57;;;3.20;99.90;;;;;;4809555;29;20207;-90
2022/11/26 02:11:28;;;;;;;129.67;38.10;;;3.20;99.90;;;;;;4809559;29;20218;-92
2022/11/26 02:13:59;;;;;;;124.33;36.83;;;3.30;99.90;;;;;;4809213;29;20251;-85
2022/11/26 02:16:44;;;;;;;117.93;36.53;;;3.30;99.90;;;;;;4825683;29;20200;-86
2022/11/26 02:19:45;;;;;;;128.43;38.53;;;3.30;99.90;;;;;;4825532;29;20203;-89
2022/11/26 02:22:49;;;;;;;123.57;36.93;;;3.30;99.90;;;;;;4809146;29;20232;-90
2022/11/26 02:25:36;;;;;;;126.97;36.77;;;3.40;99.90;;;;;;4824974;29;20226;-90
2022/11/26 02:28:29;;;;;;;117.13;36.83;;;3.30;99.90;;;;;;4808837;29;20205;-91
2022/11/26 02:31:05;;;;;;;106.57;34.23;;;3.10;99.90;;;;;;4824586;29;20215;-86
2022/11/26 02:33:48;;;;;;;110.27;34.27;;;3.10;99.90;;;;;;4827757;29;20277;-89
2022/11/26 02:36:36;;;;;;;126.77;35.97;;;3.10;99.90;;;;;;4825682;29;20204;-81
2022/11/26 02:39:17;;;;;;;108.97;33.90;;;3.10;99.90;;;;;;4824646;29;20241;-91
2022/11/26 02:41:49;;;;;;;120.17;35.53;;;3.00;99.90;;;;;;4808934;29;20574;-80
2022/11/26 02:44:21;;;;;;;122.13;35.73;;;3.10;99.90;;;;;;4809058;29;20229;-92
2022/11/26 02:46:57;;;;;;;116.63;34.73;;;3.10;99.90;;;;;;4809161;29;20203;-90
2022/11/26 02:49:27;;;;;;;115.77;35.40;;;3.10;99.90;;;;;;4811209;29;20218;-92
2022/11/26 02:52:00;;;;;;;120.33;36.03;;;3.10;99.90;;;;;;4826590;29;20200;-90
2022/11/26 02:54:30;;;;;;;121.07;36.50;;;3.10;99.90;;;;;;4826217;29;20335;-92
2022/11/26 02:57:02;;;;;;;120.53;35.83;;;3.00;99.90;;;;;;4826364;29;20212;-84
2022/11/26 02:59:32;;;;;;;124.73;36.00;;;2.90;99.90;;;;;;4826237;29;20668;-79
2022/11/26 03:02:04;;;;;;;122.50;35.07;;;3.10;99.90;;;;;;4808899;29;20567;-83
2022/11/26 03:04:45;;;;;;;122.00;34.27;;;3.00;99.90;;;;;;4839218;29;20232;-85
2022/11/26 03:07:14;;;;;;;119.40;35.00;;;2.90;99.90;;;;;;4842272;29;20204;-93
2022/11/26 03:09:51;;;;;;;123.90;35.63;;;2.90;99.90;;;;;;4825638;29;20267;-93
2022/11/26 03:12:21;;;;;;;116.07;34.40;;;2.90;99.90;;;;;;4824706;29;20193;-94
2022/11/26 03:14:55;;;;;;;117.13;34.73;;;3.00;99.90;;;;;;4805154;29;20279;-79
2022/11/26 03:17:26;;;;;;;112.50;34.70;;;3.00;99.90;;;;;;4815703;29;20207;-78
2022/11/26 03:19:56;;;;;;;105.37;33.87;;;3.00;99.90;;;;;;4805442;29;20315;-79
2022/11/26 03:22:30;;;;;;;105.47;33.50;;;3.10;99.90;;;;;;4823532;24;20292;-83
2022/11/26 03:25:01;;;;;;;115.60;33.37;;;3.00;99.90;;;;;;4804541;29;20323;-85
2022/11/26 03:27:32;;;;;;;110.53;33.17;;;3.00;99.90;;;;;;4806306;29;20728;-82
2022/11/26 03:30:07;;;;;;;123.13;35.30;;;3.10;99.90;;;;;;4805048;29;20279;-83
2022/11/26 03:32:38;;;;;;;115.10;34.10;;;3.10;99.90;;;;;;4806573;29;20210;-84
2022/11/26 03:35:06;;;;;;;123.33;34.97;;;3.10;99.90;;;;;;4812036;24;20662;-87
2022/11/26 03:37:33;;;;;;;117.93;34.73;;;3.20;99.90;;;;;;4789507;29;20211;-88
2022/11/26 03:40:04;;;;;;;112.30;34.37;;;3.10;99.90;;;;;;4775595;29;20207;-88
2022/11/26 03:42:31;;;;;;;112.20;32.70;;;3.10;99.90;;;;;;4789850;29;20310;-92
2022/11/26 03:44:59;;;;;;;124.93;35.03;;;3.10;99.90;;;;;;4775557;29;20297;-87
2022/11/26 03:47:26;;;;;;;117.93;35.67;;;3.20;99.90;;;;;;4774858;29;20235;-91
2022/11/26 03:49:54;;;;;;;125.10;35.33;;;3.10;99.90;;;;;;4807513;29;20224;-88
2022/11/26 03:52:21;;;;;;;119.70;34.67;;;3.10;99.90;;;;;;4793371;29;20939;-91
2022/11/26 03:54:48;;;;;;;147.07;35.93;;;3.00;99.90;;;;;;4793067;29;20294;-86
2022/11/26 03:57:15;;;;;;;132.93;35.43;;;3.00;99.90;;;;;;4809794;29;20206;-91
2022/11/26 03:59:43;;;;;;;135.53;36.40;;;3.00;99.90;;;;;;4809658;29;20248;-84
2022/11/26 04:02:10;;;;;;;127.70;34.90;;;3.00;99.90;;;;;;4809741;29;20213;-92
2022/11/26 04:04:37;;;;;;;129.63;34.47;;;2.80;99.90;;;;;;4793095;29;20231;-91
2022/11/26 04:07:05;;;;;;;131.37;35.63;;;3.00;99.90;;;;;;4808514;29;20212;-91
2022/11/26 04:09:32;;;;;;;139.67;36.33;;;2.90;99.90;;;;;;4792890;29;20209;-91
2022/11/26 04:12:00;;;;;;;130.80;36.40;;;3.00;99.90;;;;;;4809258;29;20287;-79
2022/11/26 04:14:27;;;;;;;151.00;36.73;;;3.10;99.90;;;;;;4809263;29;20279;-79
2022/11/26 04:16:54;;;;;;;157.60;38.07;;;3.00;99.90;;;;;;4809539;29;20219;-91
2022/11/26 04:19:22;;;;;;;143.00;36.83;;;3.00;99.90;;;;;;4793072;29;20604;-83
2022/11/26 04:21:49;;;;;;;137.03;37.13;;;3.00;99.90;;;;;;4809413;29;20230;-86
2022/11/26 04:24:16;;;;;;;144.17;37.43;;;3.10;99.90;;;;;;4808849;29;20203;-82
2022/11/26 04:26:42;;;;;;;141.17;36.23;;;3.10;99.90;;;;;;4792794;29;20207;-89
2022/11/26 04:29:09;;;;;;;141.47;37.10;;;3.10;99.90;;;;;;4809439;29;20196;-90
2022/11/26 04:31:36;;;;;;;135.50;35.17;;;3.00;99.90;;;;;;4792688;29;20700;-92
2022/11/26 04:34:05;;;;;;;134.40;35.53;;;3.10;99.90;;;;;;4786260;29;20247;-91
2022/11/26 04:36:33;;;;;;;146.23;37.67;;;3.10;99.90;;;;;;4773184;30;20198;-84
2022/11/26 04:39:03;;;;;;;144.13;37.23;;;3.10;99.90;;;;;;4773052;30;20201;-86
2022/11/26 04:41:30;;;;;;;142.47;36.73;;;3.10;99.90;;;;;;4772743;30;20202;-85
2022/11/26 04:43:57;;;;;;;137.47;37.60;;;3.00;99.90;;;;;;4772110;30;20219;-93
2022/11/26 04:46:24;;;;;;;140.10;37.97;;;3.10;99.90;;;;;;4787043;30;20340;-84
2022/11/26 04:48:53;;;;;;;195.90;38.10;;;3.20;99.90;;;;;;4771345;30;20240;-83
2022/11/26 04:51:21;;;;;;;134.87;37.70;;;3.00;99.90;;;;;;4771825;30;20206;-87
2022/11/26 04:53:48;;;;;;;152.67;37.53;;;3.00;99.90;;;;;;4772853;30;20205;-88
2022/11/26 04:56:18;;;;;;;134.53;36.83;;;3.00;99.90;;;;;;4774388;30;20288;-82
2022/11/26 04:58:45;;;;;;;140.33;35.40;;;3.00;99.90;;;;;;4774673;30;20197;-93
2022/11/26 05:01:12;;;;;;;120.67;33.23;;;2.90;99.90;;;;;;4770688;30;20214;-89
2022/11/26 05:03:39;;;;;;;110.57;32.20;;;3.00;99.90;;;;;;4772114;30;20584;-84
2022/11/26 05:06:06;;;;;;;116.67;31.90;;;3.00;99.90;;;;;;4772052;30;20248;-93
2022/11/26 05:08:33;;;;;;;107.97;31.47;;;3.00;99.90;;;;;;4772566;30;20254;-90
2022/11/26 05:11:01;;;;;;;104.63;30.10;;;3.10;99.90;;;;;;4757031;30;20250;-91
2022/11/26 05:13:31;;;;;;;98.20;27.60;;;3.10;99.90;;;;;;4771881;30;20186;-91
2022/11/26 05:15:58;;;;;;;95.53;28.60;;;3.10;99.90;;;;;;4772721;30;20200;-91
2022/11/26 05:18:25;;;;;;;86.70;27.53;;;3.10;99.90;;;;;;4772215;30;20201;-86
2022/11/26 05:20:52;;;;;;;78.70;27.57;;;3.20;99.90;;;;;;4771109;30;20217;-91
2022/11/26 05:23:19;;;;;;;82.10;26.70;;;3.20;99.90;;;;;;4774602;30;20308;-85
2022/11/26 05:25:46;;;;;;;81.90;27.03;;;3.00;99.90;;;;;;4772352;30;20225;-88
2022/11/26 05:28:13;;;;;;;87.40;27.07;;;3.10;99.90;;;;;;4756644;30;20586;-91
2022/11/26 05:30:40;;;;;;;72.20;25.23;;;3.10;99.90;;;;;;4771356;30;20263;-89
2022/11/26 05:33:07;;;;;;;72.10;25.57;;;3.00;99.90;;;;;;4771243;30;20215;-81
2022/11/26 05:35:36;;;;;;;69.10;22.47;;;3.00;99.90;;;;;;4785905;30;20232;-88
2022/11/26 05:38:03;;;;;;;73.60;24.47;;;3.00;99.90;;;;;;4788970;30;20204;-93
2022/11/26 05:40:31;;;;;;;71.40;24.97;;;3.00;99.90;;;;;;4788813;29;20200;-87
2022/11/26 05:42:58;;;;;;;64.80;24.57;;;3.00;99.90;;;;;;4789022;30;20728;-82
2022/11/26 05:45:25;;;;;;;65.50;23.90;;;2.80;99.90;;;;;;4788605;30;20321;-83
2022/11/26 05:47:52;;;;;;;69.93;23.47;;;2.90;99.90;;;;;;4803922;29;20299;-81
2022/11/26 05:50:19;;;;;;;71.13;22.97;;;3.00;99.90;;;;;;4788193;30;20209;-82
2022/11/26 05:52:46;;;;;;;63.63;23.20;;;3.10;99.90;;;;;;4790115;29;20200;-88
2022/11/26 05:55:15;;;;;;;67.23;24.03;;;3.10;99.90;;;;;;4789930;29;20200;-82
2022/11/26 05:57:42;;;;;;;67.20;25.00;;;3.00;99.90;;;;;;4790028;30;20639;-82
2022/11/26 06:00:10;;;;;;;64.47;24.40;;;2.90;99.90;;;;;;4789302;29;20219;-83
2022/11/26 06:02:38;;;;;;;70.33;24.83;;;2.70;99.90;;;;;;4787974;29;20211;-88
2022/11/26 06:05:06;;;;;;;68.93;24.87;;;2.70;99.90;;;;;;4789196;30;20723;-80
2022/11/26 06:07:36;;;;;;;68.40;24.53;;;2.80;99.90;;;;;;4799703;30;20204;-79
2022/11/26 06:10:14;;;;;;;65.20;24.20;;;2.90;99.90;;;;;;4804450;29;20648;-96
2022/11/26 06:12:41;;;;;;;64.40;25.07;;;3.10;99.90;;;;;;4801098;29;20219;-83
2022/11/26 06:15:14;;;;;;;68.60;24.40;;;3.00;99.90;;;;;;4788061;30;20217;-84
2022/11/26 06:17:41;;;;;;;64.33;25.20;;;3.20;99.90;;;;;;4788178;30;20287;-83
2022/11/26 06:20:09;;;;;;;63.60;25.03;;;3.20;99.90;;;;;;4773938;30;20254;-93
2022/11/26 06:22:41;;;;;;;67.10;25.33;;;3.10;99.90;;;;;;4788815;30;20240;-91
2022/11/26 06:25:12;;;;;;;63.60;25.13;;;3.10;99.90;;;;;;4787837;30;20762;-91
2022/11/26 06:27:40;;;;;;;67.37;24.53;;;3.30;99.90;;;;;;4787461;30;20225;-81
2022/11/26 06:30:09;;;;;;;60.63;22.63;;;3.00;99.90;;;;;;4802862;29;20197;-84
2022/11/26 06:32:36;;;;;;;54.13;21.63;;;2.80;99.90;;;;;;4788585;29;20276;-92
2022/11/26 06:35:04;;;;;;;56.33;21.47;;;2.80;99.90;;;;;;4813666;29;20241;-89
2022/11/26 06:37:32;;;;;;;51.50;20.77;;;2.90;99.90;;;;;;4809918;29;20222;-91
2022/11/26 06:39:59;;;;;;;47.03;19.70;;;2.70;99.90;;;;;;4772965;30;20651;-90
2022/11/26 06:42:26;;;;;;;48.10;19.87;;;2.80;99.90;;;;;;4787538;29;20624;-91
2022/11/26 06:44:53;;;;;;;47.30;18.83;;;3.00;99.90;;;;;;4787553;30;20212;-82
2022/11/26 06:47:26;;;;;;;52.00;19.60;;;3.10;99.90;;;;;;4788495;30;20280;-79
2022/11/26 06:49:53;;;;;;;54.10;21.03;;;2.90;99.90;;;;;;4787783;29;20609;-81
2022/11/26 06:52:19;;;;;;;52.53;20.43;;;2.80;99.90;;;;;;4787641;30;20208;-85
2022/11/26 06:54:48;;;;;;;64.33;22.87;;;3.00;99.90;;;;;;4797895;29;20212;-87
2022/11/26 06:57:15;;;;;;;68.23;23.70;;;2.80;99.90;;;;;;4787851;29;20659;-85
2022/11/26 06:59:41;;;;;;;71.80;24.00;;;2.70;99.90;;;;;;4772460;30;20290;-80
2022/11/26 07:02:09;;;;;;;75.27;24.50;;;2.80;99.90;;;;;;4802412;29;20196;-80
2022/11/26 07:04:36;;;;;;;70.27;23.57;;;2.70;99.90;;;;;;4787819;30;20561;-81
2022/11/26 07:07:03;;;;;;;73.87;22.93;;;2.50;99.90;;;;;;4788304;29;20244;-80
2022/11/26 07:09:30;;;;;;;69.10;23.37;;;2.50;99.90;;;;;;4786941;30;20209;-81
2022/11/26 07:11:57;;;;;;;66.93;22.90;;;2.40;99.90;;;;;;4787468;30;20685;-81
2022/11/26 07:14:24;;;;;;;69.30;23.43;;;2.30;99.90;;;;;;4788315;30;20222;-81
2022/11/26 07:16:51;;;;;;;67.33;22.87;;;2.40;99.90;;;;;;4786924;29;20230;-82
2022/11/26 07:19:18;;;;;;;64.43;22.23;;;2.50;99.90;;;;;;4802308;29;20205;-84
2022/11/26 07:21:45;;;;;;;66.10;22.60;;;2.50;99.90;;;;;;4787486;30;20215;-87
2022/11/26 07:24:12;;;;;;;63.63;22.10;;;2.60;99.90;;;;;;4804669;29;20634;-85
2022/11/26 07:26:38;;;;;;;64.53;22.07;;;2.60;99.90;;;;;;4794405;29;20236;-84
2022/11/26 07:29:05;;;;;;;65.43;22.30;;;2.60;99.90;;;;;;4794029;29;20225;-84
2022/11/26 07:31:32;;;;;;;56.13;21.07;;;2.60;99.90;;;;;;4793122;30;20204;-85
2022/11/26 07:33:59;;;;;;;56.40;20.30;;;2.70;99.90;;;;;;4793022;29;20356;-84
2022/11/26 07:36:28;;;;;;;62.03;20.97;;;2.60;99.90;;;;;;4793772;30;20680;-84
2022/11/26 07:38:58;;;;;;;62.67;21.27;;;2.50;99.90;;;;;;4794340;29;20672;-80
2022/11/26 07:41:26;;;;;;;61.63;20.63;;;2.20;99.90;;;;;;4792604;29;20210;-86
2022/11/26 07:43:53;;;;;;;69.30;23.70;;;2.10;99.90;;;;;;4795177;29;20214;-87
2022/11/26 07:46:23;;;;;;;59.03;20.97;;;2.10;99.90;;;;;;4793056;30;20243;-85
2022/11/26 07:48:50;;;;;;;65.13;22.40;;;2.10;99.90;;;;;;4792934;30;20208;-83
2022/11/26 07:51:28;;;;;;;59.90;21.43;;;2.20;99.90;;;;;;4792755;30;20224;-85
2022/11/26 07:53:58;;;;;;;67.13;21.80;;;2.10;99.90;;;;;;4794077;29;20591;-83
2022/11/26 07:56:25;;;;;;;63.10;21.83;;;2.30;99.90;;;;;;4807666;29;20303;-85
2022/11/26 07:58:53;;;;;;;59.67;21.37;;;2.40;99.90;;;;;;4793635;30;20231;-85
2022/11/26 08:01:28;;;;;;;53.53;20.67;;;2.40;99.90;;;;;;4794096;30;20234;-86
2022/11/26 08:03:56;;;;;;;59.87;20.77;;;2.40;99.90;;;;;;4793640;29;20224;-81
2022/11/26 08:06:27;;;;;;;62.83;22.33;;;2.00;99.90;;;;;;4792250;30;20224;-85
2022/11/26 08:08:54;;;;;;;61.03;20.57;;;1.80;99.90;;;;;;4792827;30;20201;-82
2022/11/26 08:11:26;;;;;;;67.47;22.90;;;2.00;99.90;;;;;;4792485;29;20204;-84
2022/11/26 08:13:57;;;;;;;54.63;20.80;;;1.90;99.90;;;;;;4793662;29;20659;-86
2022/11/26 08:16:24;;;;;;;62.80;22.23;;;2.00;99.90;;;;;;4794019;30;20217;-84
2022/11/26 08:18:56;;;;;;;59.00;21.47;;;2.10;99.90;;;;;;4792465;30;20195;-80
2022/11/26 08:21:28;;;;;;;58.83;21.30;;;2.30;99.90;;;;;;4793996;29;20257;-81
2022/11/26 08:23:55;;;;;;;74.77;23.73;;;2.30;99.90;;;;;;4793935;30;20200;-86
2022/11/26 08:26:24;;;;;;;69.20;22.43;;;2.20;99.90;;;;;;4808374;29;20749;-86
2022/11/26 08:29:00;;;;;;;63.77;21.53;;;1.90;99.90;;;;;;4793905;29;20206;-79
2022/11/26 08:31:28;;;;;;;67.33;22.63;;;1.70;99.90;;;;;;4807517;29;20223;-81
2022/11/26 08:33:56;;;;;;;70.40;23.43;;;1.80;99.90;;;;;;4794792;29;20274;-80
2022/11/26 08:36:24;;;;;;;71.60;23.03;;;1.80;99.90;;;;;;4809155;29;20198;-80
2022/11/26 08:38:51;;;;;;;65.17;22.30;;;1.80;99.90;;;;;;4792812;29;20208;-78
2022/11/26 08:41:18;;;;;;;66.30;22.03;;;1.90;99.90;;;;;;4792529;29;20294;-81
2022/11/26 08:43:45;;;;;;;61.60;22.53;;;2.10;99.90;;;;;;4792777;29;20222;-80
2022/11/26 08:46:32;;;;;;;71.73;22.47;;;2.20;99.90;;;;;;4792431;29;20237;-85
2022/11/26 08:48:59;;;;;;;59.67;20.97;;;2.10;99.90;;;;;;4792207;29;20658;-84
2022/11/26 08:51:26;;;;;;;51.97;19.53;;;2.10;99.90;;;;;;4807571;29;20215;-82
2022/11/26 08:53:53;;;;;;;58.47;20.90;;;2.20;99.90;;;;;;4788803;29;20548;-82
2022/11/26 08:56:20;;;;;;;59.00;22.80;;;2.30;99.90;;;;;;4790303;30;20207;-84
2022/11/26 08:58:48;;;;;;;59.57;21.50;;;1.80;99.90;;;;;;4773642;30;20202;-81
2022/11/26 09:01:26;;;;;;;64.27;22.30;;;1.80;99.90;;;;;;4790565;30;20702;-85
2022/11/26 09:03:59;;;;;;;57.13;21.43;;;1.80;99.90;;;;;;4790609;30;20208;-88
2022/11/26 09:06:29;;;;;;;58.53;22.23;;;1.80;99.90;;;;;;4790196;30;20240;-86
2022/11/26 09:09:13;;;;;;;58.67;21.77;;;1.90;99.90;;;;;;4790851;29;20211;-89
2022/11/26 09:11:55;;;;;;;59.30;21.30;;;1.90;99.90;;;;;;4773805;30;20216;-82
2022/11/26 09:14:24;;;;;;;56.33;20.70;;;1.90;99.90;;;;;;4774019;30;20671;-86
2022/11/26 09:16:53;;;;;;;60.13;21.27;;;2.00;99.90;;;;;;4774422;30;20196;-84
2022/11/26 09:19:21;;;;;;;58.37;22.50;;;2.00;99.90;;;;;;4791275;29;20202;-83
2022/11/26 09:21:48;;;;;;;57.97;22.00;;;2.10;99.90;;;;;;4774273;30;20265;-86
2022/11/26 09:24:16;;;;;;;58.33;22.90;;;2.40;99.90;;;;;;4774358;30;20619;-87
2022/11/26 09:26:43;;;;;;;55.13;22.30;;;2.50;99.90;;;;;;4773533;30;20238;-85
2022/11/26 09:29:15;;;;;;;56.97;21.20;;;2.50;99.90;;;;;;4773867;30;20545;-86
2022/11/26 09:31:43;;;;;;;55.80;20.60;;;2.60;99.90;;;;;;4789619;29;20287;-88
2022/11/26 09:34:31;;;;;;;54.67;20.23;;;2.30;99.90;;;;;;4770138;30;20284;-83
2022/11/26 09:36:57;;;;;;;57.67;20.87;;;2.40;99.90;;;;;;4770603;30;20213;-87
2022/11/26 09:39:26;;;;;;;55.67;20.53;;;2.50;99.90;;;;;;4756187;30;20205;-85
2022/11/26 09:42:00;;;;;;;55.63;20.53;;;2.70;99.90;;;;;;4769913;30;20660;-78
2022/11/26 09:45:00;;;;;;;55.73;20.33;;;2.60;99.90;;;;;;4770197;30;20295;-81
2022/11/26 09:47:36;;;;;;;55.17;20.60;;;2.70;99.90;;;;;;4733471;30;20252;-78
2022/11/26 09:50:12;;;;;;;50.97;19.60;;;2.60;99.90;;;;;;4720153;30;20213;-87
2022/11/26 09:52:44;;;;;;;56.40;20.27;;;2.50;99.90;;;;;;4734401;30;20214;-80
2022/11/26 09:55:23;;;;;;;55.53;19.90;;;2.40;99.90;;;;;;4733911;30;20217;-80
2022/11/26 09:58:16;;;;;;;54.53;20.00;;;2.50;99.90;;;;;;4719179;30;20215;-83
2022/11/26 10:00:56;;;;;;;50.93;19.73;;;2.60;99.90;;;;;;4719795;30;20218;-82
2022/11/26 10:03:28;;;;;;;51.77;18.90;;;2.50;99.90;;;;;;4718970;30;20219;-80
2022/11/26 10:06:07;;;;;;;53.27;20.10;;;2.40;99.90;;;;;;4733839;30;20230;-83
2022/11/26 10:09:10;;;;;;;61.73;20.57;;;2.50;99.90;;;;;;4719402;30;20214;-81
2022/11/26 10:12:06;;;;;;;57.33;20.23;;;2.50;99.90;;;;;;4733459;30;20707;-81
2022/11/26 10:14:58;;;;;;;54.30;19.33;;;2.50;99.90;;;;;;4719229;30;20773;-85
2022/11/26 10:17:43;;;;;;;57.20;19.93;;;2.40;99.90;;;;;;4719597;30;20268;-85
2022/11/26 10:20:13;;;;;;;54.63;19.70;;;2.40;99.90;;;;;;4733581;30;20218;-80
2022/11/26 10:22:51;;;;;;;51.77;19.13;;;2.50;99.90;;;;;;4733886;30;20261;-80
2022/11/26 10:25:27;;;;;;;57.13;19.10;;;2.30;99.90;;;;;;4769342;30;20215;-81
2022/11/26 10:27:57;;;;;;;52.30;18.93;;;2.40;99.90;;;;;;4769733;30;20231;-82
2022/11/26 10:30:26;;;;;;;47.97;17.77;;;2.30;99.90;;;;;;4769482;30;20233;-81
2022/11/26 10:32:55;;;;;;;46.73;18.07;;;2.20;99.90;;;;;;4769722;30;20220;-79
2022/11/26 10:35:24;;;;;;;46.37;17.57;;;2.40;99.90;;;;;;4784035;30;20713;-79
2022/11/26 10:37:53;;;;;;;50.73;18.40;;;2.50;99.90;;;;;;4772929;30;20204;-83
2022/11/26 10:40:24;;;;;;;40.23;17.30;;;2.40;99.90;;;;;;4788882;29;20212;-84
2022/11/26 10:42:57;;;;;;;46.07;17.73;;;2.20;99.90;;;;;;4772396;30;20211;-81
2022/11/26 10:45:35;;;;;;;48.23;19.17;;;2.20;99.90;;;;;;4772183;30;20217;-79
2022/11/26 10:48:23;;;;;;;44.00;18.00;;;2.20;99.90;;;;;;4772571;30;20224;-83
2022/11/26 10:51:21;;;;;;;51.13;18.43;;;2.10;99.90;;;;;;4772537;30;20365;-86
2022/11/26 10:53:58;;;;;;;44.83;17.13;;;2.10;99.90;;;;;;4786305;30;20276;-84
2022/11/26 10:56:35;;;;;;;47.13;17.73;;;2.00;99.90;;;;;;4772575;29;20212;-85
2022/11/26 10:59:06;;;;;;;51.13;19.33;;;2.00;99.90;;;;;;4787983;30;20214;-82
2022/11/26 11:01:38;;;;;;;58.23;19.27;;;1.90;99.90;;;;;;4772052;30;20208;-81
2022/11/26 11:04:23;;;;;;;52.37;19.23;;;1.90;99.90;;;;;;4772494;30;20330;-85
2022/11/26 11:06:53;;;;;;;51.60;19.47;;;1.80;99.90;;;;;;4791428;29;20255;-80
2022/11/26 11:09:35;;;;;;;52.63;18.47;;;1.80;99.90;;;;;;4787356;29;20231;-84
2022/11/26 11:12:23;;;;;;;52.43;17.70;;;1.90;99.90;;;;;;4772396;30;20208;-81
2022/11/26 11:14:51;;;;;;;52.77;18.70;;;1.90;99.90;;;;;;4772515;30;20291;-83
2022/11/26 11:17:32;;;;;;;51.43;17.87;;;2.00;99.90;;;;;;4772359;30;20210;-84
2022/11/26 11:20:20;;;;;;;49.70;17.70;;;2.00;99.90;;;;;;4772304;30;20216;-85
2022/11/26 11:23:01;;;;;;;47.77;17.63;;;2.20;99.90;;;;;;4771794;30;20311;-85
2022/11/26 11:25:31;;;;;;;46.80;17.27;;;2.30;99.90;;;;;;4772092;30;20197;-84
2022/11/26 11:28:03;;;;;;;44.63;18.13;;;2.30;99.90;;;;;;4779649;29;20233;-84
2022/11/26 11:30:39;;;;;;;41.43;16.20;;;2.40;99.90;;;;;;4779858;30;20229;-81
2022/11/26 11:33:18;;;;;;;44.57;17.53;;;2.40;99.90;;;;;;4771831;30;20216;-85
2022/11/26 11:35:59;;;;;;;47.77;17.40;;;2.50;99.90;;;;;;4784885;29;20242;-80
2022/11/26 11:38:30;;;;;;;46.70;16.77;;;2.20;99.90;;;;;;4806482;29;20302;-83
2022/11/26 11:41:35;;;;;;;42.30;16.33;;;2.10;99.90;;;;;;4790048;29;20223;-90
2022/11/26 11:44:04;;;;;;;42.93;15.53;;;1.80;99.90;;;;;;4788501;29;20208;-84
2022/11/26 11:47:01;;;;;;;46.00;17.20;;;1.80;99.90;;;;;;4793497;30;20224;-86
2022/11/26 11:49:36;;;;;;;42.87;16.77;;;1.90;99.90;;;;;;4786758;30;20211;-84
2022/11/26 11:52:37;;;;;;;43.03;16.73;;;2.00;99.90;;;;;;4791873;29;20261;-86
2022/11/26 11:55:25;;;;;;;49.37;17.63;;;1.90;99.90;;;;;;4789726;30;20750;-79
2022/11/26 11:58:29;;;;;;;44.10;17.10;;;1.90;99.90;;;;;;4784266;29;20209;-89
2022/11/26 12:01:11;;;;;;;45.53;17.60;;;2.00;99.90;;;;;;4783296;29;20220;-88
2022/11/26 12:04:26;;;;;;;45.90;17.47;;;1.90;99.90;;;;;;4756778;30;20315;-90
2022/11/26 12:07:14;;;;;;;48.57;18.10;;;1.90;99.90;;;;;;4717579;30;20739;-88
2022/11/26 12:10:07;;;;;;;56.33;19.23;;;2.00;99.90;;;;;;4732316;30;20218;-83
2022/11/26 12:12:37;;;;;;;44.67;17.93;;;2.10;99.90;;;;;;4720683;30;20576;-83
2022/11/26 12:15:25;;;;;;;45.40;18.13;;;2.20;99.90;;;;;;4738023;30;20209;-84
2022/11/26 12:18:10;;;;;;;50.20;17.57;;;2.20;99.90;;;;;;4738223;30;20206;-81
2022/11/26 12:20:44;;;;;;;40.80;17.33;;;2.20;99.90;;;;;;4738357;30;20676;-79
2022/11/26 12:23:48;;;;;;;49.77;18.87;;;2.30;99.90;;;;;;4738345;30;20220;-86
2022/11/26 12:26:41;;;;;;;44.23;17.53;;;2.30;99.90;;;;;;4809509;29;20282;-85
2022/11/26 12:29:24;;;;;;;46.90;18.67;;;2.40;99.90;;;;;;4819081;29;20278;-86
2022/11/26 12:31:56;;;;;;;48.73;18.93;;;2.40;99.90;;;;;;4810375;29;20213;-82
2022/11/26 12:34:37;;;;;;;50.17;19.33;;;2.40;99.90;;;;;;4826563;29;20646;-81
2022/11/26 12:37:30;;;;;;;49.20;19.43;;;2.30;99.90;;;;;;4810163;29;20246;-82
2022/11/26 12:40:00;;;;;;;49.23;20.00;;;2.40;99.90;;;;;;4810602;29;20208;-82
2022/11/26 12:42:56;;;;;;;51.67;19.13;;;2.40;99.90;;;;;;4810279;29;20198;-82
2022/11/26 12:45:43;;;;;;;50.57;20.70;;;2.30;99.90;;;;;;4810005;29;20207;-83
2022/11/26 12:48:26;;;;;;;50.87;19.93;;;2.20;99.90;;;;;;4810109;29;20226;-82
2022/11/26 12:50:57;;;;;;;61.13;20.00;;;2.20;99.90;;;;;;4794996;29;20202;-82
2022/11/26 12:53:42;;;;;;;53.67;19.53;;;2.00;99.90;;;;;;4810147;29;20211;-83
2022/11/26 12:56:21;;;;;;;51.50;18.87;;;2.10;99.90;;;;;;4810261;29;20191;-81
2022/11/26 12:59:01;;;;;;;47.63;18.30;;;2.00;99.90;;;;;;4826758;29;20213;-81
2022/11/26 13:01:28;;;;;;;50.90;19.70;;;2.00;99.90;;;;;;4810676;29;20210;-78
2022/11/26 13:03:56;;;;;;;53.60;19.57;;;2.00;99.90;;;;;;4826411;29;20232;-82